Air Sicilia Virtual Airways - Route

Air Sicilia Virtual Airways - SIC230L

( SR ) SMZO
Zorg en Hoop Airport
PARAMARIBO ( ORG )
plane_to ( BR ) SBFZ
Pinto Martins International Airport
FORTALEZA ( FOR )
Tour Amelia EARHART - LEG: 7

AIRPORT NEAR NAVIGATION AIDS

Type Name Frequency

METAR / TAF
SMZO 191600Z 06006KT 9999 VCSH SCT015 FEW018CB BKN030 29/25 Q1012 NOSIG
SMZO 191000Z 1912/2012 08008KT 9999 FEW010 SCT030 TX30/1918Z TN24/2009Z TEMPO 1915/1922 4000 SHRA FEW015CB BKN020

RUNWAY INFORMATION

Runway Runway length Runway width Runway elevation Runway displaced threshold Runway heading

AIRPORT FREQUENCIES

Type Name Frequency

AIRPORT NEAR NAVIGATION AIDS

Type Name Frequency
VOR-DME Fortaleza 114100 KHZ
NDB Fortaleza 260 KHZ

METAR / TAF
SBFZ 191600Z 09013KT 9999 SCT025 FEW030TCU SCT100 30/24 Q1011
SBFZ 191000Z 1912/2012 07009KT 9999 SCT025 TX31/1915Z TN26/2007Z TEMPO 1913/1917 SCT025 FEW030TCU BECMG 1922/1924 07005KT FEW020 RMK PAY

RUNWAY INFORMATION

Runway Runway length Runway width Runway elevation Runway displaced threshold Runway heading
13 8350 148 82 0 105
31 8350 148 65 0 285

AIRPORT FREQUENCIES

Type Name Frequency
APP FORTALEZA 133 MHZ
ATIS ATIS 127.7 MHZ
GND GND 121.95 MHZ
OPS FORTALEZA 122.5 MHZ
TWR FORTALEZA 129 MHZ

Flightplan

via SAO LUIS

Air Sicilia Virtual Airways Fleets

AVAILABLE AIRCRAFTS for route at this time in Zorg en Hoop Airport
DC3 - Douglas DC3
( US ) Douglas

Aircraft in fleet: 2

1182 NM

Distance in nautical miles.

€ 0,00

Ticket price for this flight.

Nr. 7

Leg



12-11-2018
Aerosoft Airport Rio de Janeiro International V2.0 XP

L'Aeroporto Internazionale di Rio de Janeiro-Galeão (IATA: GIG, ICAO: SBGL), costruito nel 1952 nel quartiere di Ilha do Governador ed intitolato al musicista Antônio Carlos Jobim, è il principale aeroporto internazio ....


15-10-2018
Aerosoft A320 Family professional

La gamma di aeromobili A320 è una delle più comuni nei cieli. Questi aerei di linea a doppio-getto a corto e medio raggio si sono dimostrati convenienti, affidabili e prontamente disponibili, rendendoli le opzioni migl ....


10-10-2018
Motore critico ( Critical Engine )

Il motore critico di un velivolo ad ala fissa multi-motore è il motore che, in caso di guasto, influirebbe negativamente sulle prestazioni o sulla capacità di manovra di un aereo. Sui velivoli ad elica, vi è un ....


04-10-2018
Aerosoft Dortmund XP

Scopri il centro della regione della Ruhr su XPlane 11 - lo scenario Dortmund XP è una ricostruzione completa della città di Dortmund per il simulatore di volo targato Laminar. Oltre all'intera area urbana di Dortmu ....


07-08-2018
Aerosoft Professional Flight Planner PFPX

PFPX - Professional Flight Planner X - è un nuovo ed innovativo strumento di pianificazione del volo sviluppato da piloti e dispatcher del mondo reale. È un'aggiunta preziosa e realistica alla tua esperienza di simulaz ....